sensor_id;sensor_type;location;lat;lon;timestamp;P1;durP1;ratioP1;P2;durP2;ratioP2
10811;SDS011;5458;51.496;7.334;2023-04-24T00:01:28;1.38;;;0.80;;
10811;SDS011;5458;51.496;7.334;2023-04-24T00:03:54;0.60;;;0.60;;
10811;SDS011;5458;51.496;7.334;2023-04-24T00:06:24;1.52;;;0.70;;
10811;SDS011;5458;51.496;7.334;2023-04-24T00:08:58;1.00;;;1.00;;
10811;SDS011;5458;51.496;7.334;2023-04-24T00:11:28;1.50;;;0.90;;
10811;SDS011;5458;51.496;7.334;2023-04-24T00:13:54;0.90;;;0.70;;
10811;SDS011;5458;51.496;7.334;2023-04-24T00:16:20;3.08;;;1.10;;
10811;SDS011;5458;51.496;7.334;2023-04-24T00:18:46;1.23;;;0.90;;
10811;SDS011;5458;51.496;7.334;2023-04-24T00:21:12;1.55;;;0.70;;
10811;SDS011;5458;51.496;7.334;2023-04-24T00:23:38;1.77;;;0.90;;
10811;SDS011;5458;51.496;7.334;2023-04-24T00:26:04;1.25;;;0.75;;
10811;SDS011;5458;51.496;7.334;2023-04-24T00:28:30;0.93;;;0.90;;
10811;SDS011;5458;51.496;7.334;2023-04-24T00:30:55;2.95;;;1.00;;
10811;SDS011;5458;51.496;7.334;2023-04-24T00:33:21;1.35;;;1.00;;
10811;SDS011;5458;51.496;7.334;2023-04-24T00:35:48;1.70;;;1.30;;
10811;SDS011;5458;51.496;7.334;2023-04-24T00:38:13;1.30;;;1.20;;
10811;SDS011;5458;51.496;7.334;2023-04-24T00:40:39;1.17;;;1.17;;
10811;SDS011;5458;51.496;7.334;2023-04-24T00:43:05;1.33;;;1.17;;
10811;SDS011;5458;51.496;7.334;2023-04-24T00:45:30;1.20;;;1.00;;
10811;SDS011;5458;51.496;7.334;2023-04-24T00:47:56;1.25;;;1.15;;
10811;SDS011;5458;51.496;7.334;2023-04-24T00:50:23;1.25;;;1.00;;
10811;SDS011;5458;51.496;7.334;2023-04-24T00:52:50;1.05;;;1.00;;
10811;SDS011;5458;51.496;7.334;2023-04-24T00:55:16;1.48;;;1.38;;
10811;SDS011;5458;51.496;7.334;2023-04-24T00:57:42;1.42;;;1.33;;
10811;SDS011;5458;51.496;7.334;2023-04-24T01:00:09;1.95;;;1.58;;
10811;SDS011;5458;51.496;7.334;2023-04-24T01:02:36;1.52;;;1.25;;
10811;SDS011;5458;51.496;7.334;2023-04-24T01:05:09;1.25;;;1.17;;
10811;SDS011;5458;51.496;7.334;2023-04-24T01:07:34;1.70;;;1.35;;
10811;SDS011;5458;51.496;7.334;2023-04-24T01:10:01;1.48;;;1.38;;
10811;SDS011;5458;51.496;7.334;2023-04-24T01:12:27;1.73;;;1.42;;
10811;SDS011;5458;51.496;7.334;2023-04-24T01:14:53;1.55;;;1.45;;
10811;SDS011;5458;51.496;7.334;2023-04-24T01:17:19;1.60;;;1.50;;
10811;SDS011;5458;51.496;7.334;2023-04-24T01:19:46;1.42;;;1.33;;
10811;SDS011;5458;51.496;7.334;2023-04-24T01:22:15;1.70;;;1.40;;
10811;SDS011;5458;51.496;7.334;2023-04-24T01:24:41;2.22;;;1.58;;
10811;SDS011;5458;51.496;7.334;2023-04-24T01:27:08;4.60;;;1.95;;
10811;SDS011;5458;51.496;7.334;2023-04-24T01:29:34;2.08;;;1.63;;
10811;SDS011;5458;51.496;7.334;2023-04-24T01:32:00;4.03;;;1.77;;
10811;SDS011;5458;51.496;7.334;2023-04-24T01:34:26;1.80;;;1.70;;
10811;SDS011;5458;51.496;7.334;2023-04-24T01:36:52;1.55;;;1.42;;
10811;SDS011;5458;51.496;7.334;2023-04-24T01:39:18;2.78;;;1.50;;
10811;SDS011;5458;51.496;7.334;2023-04-24T01:41:45;2.50;;;1.77;;
10811;SDS011;5458;51.496;7.334;2023-04-24T01:44:11;1.70;;;1.60;;
10811;SDS011;5458;51.496;7.334;2023-04-24T01:46:37;1.88;;;1.77;;
10811;SDS011;5458;51.496;7.334;2023-04-24T01:49:03;2.45;;;1.63;;
10811;SDS011;5458;51.496;7.334;2023-04-24T01:51:29;2.72;;;1.77;;
10811;SDS011;5458;51.496;7.334;2023-04-24T01:53:55;2.72;;;2.30;;
10811;SDS011;5458;51.496;7.334;2023-04-24T01:56:21;2.40;;;2.20;;
10811;SDS011;5458;51.496;7.334;2023-04-24T01:58:47;2.08;;;1.88;;
10811;SDS011;5458;51.496;7.334;2023-04-24T02:01:18;2.28;;;2.00;;
10811;SDS011;5458;51.496;7.334;2023-04-24T02:03:45;1.88;;;1.75;;
10811;SDS011;5458;51.496;7.334;2023-04-24T02:06:10;2.10;;;2.00;;
10811;SDS011;5458;51.496;7.334;2023-04-24T02:08:36;3.08;;;2.75;;
10811;SDS011;5458;51.496;7.334;2023-04-24T02:11:02;2.88;;;1.92;;
10811;SDS011;5458;51.496;7.334;2023-04-24T02:13:28;3.42;;;2.25;;
10811;SDS011;5458;51.496;7.334;2023-04-24T02:15:53;2.13;;;2.03;;
10811;SDS011;5458;51.496;7.334;2023-04-24T02:18:19;2.22;;;2.03;;
10811;SDS011;5458;51.496;7.334;2023-04-24T02:20:45;2.20;;;2.10;;
10811;SDS011;5458;51.496;7.334;2023-04-24T02:23:11;3.50;;;3.20;;
10811;SDS011;5458;51.496;7.334;2023-04-24T02:25:38;4.03;;;3.65;;
10811;SDS011;5458;51.496;7.334;2023-04-24T02:28:03;5.15;;;4.30;;
10811;SDS011;5458;51.496;7.334;2023-04-24T02:30:29;4.68;;;4.28;;
10811;SDS011;5458;51.496;7.334;2023-04-24T02:32:55;7.90;;;4.25;;
10811;SDS011;5458;51.496;7.334;2023-04-24T02:35:21;4.97;;;3.80;;
10811;SDS011;5458;51.496;7.334;2023-04-24T02:37:47;6.20;;;4.55;;
10811;SDS011;5458;51.496;7.334;2023-04-24T02:40:12;5.30;;;4.82;;
10811;SDS011;5458;51.496;7.334;2023-04-24T02:42:38;6.55;;;5.28;;
10811;SDS011;5458;51.496;7.334;2023-04-24T02:45:04;6.28;;;4.72;;
10811;SDS011;5458;51.496;7.334;2023-04-24T02:47:30;5.45;;;4.95;;
10811;SDS011;5458;51.496;7.334;2023-04-24T02:49:55;5.18;;;4.55;;
10811;SDS011;5458;51.496;7.334;2023-04-24T02:52:21;5.90;;;5.03;;
10811;SDS011;5458;51.496;7.334;2023-04-24T02:54:47;6.75;;;5.90;;
10811;SDS011;5458;51.496;7.334;2023-04-24T02:57:12;6.40;;;5.68;;
10811;SDS011;5458;51.496;7.334;2023-04-24T02:59:38;8.30;;;6.72;;
10811;SDS011;5458;51.496;7.334;2023-04-24T03:02:03;8.85;;;6.47;;
10811;SDS011;5458;51.496;7.334;2023-04-24T03:04:29;7.45;;;6.68;;
10811;SDS011;5458;51.496;7.334;2023-04-24T03:06:55;7.13;;;6.43;;
10811;SDS011;5458;51.496;7.334;2023-04-24T03:09:21;7.63;;;6.53;;
10811;SDS011;5458;51.496;7.334;2023-04-24T03:11:47;7.43;;;6.78;;
10811;SDS011;5458;51.496;7.334;2023-04-24T03:14:14;9.00;;;7.22;;
10811;SDS011;5458;51.496;7.334;2023-04-24T03:16:40;10.50;;;7.00;;
10811;SDS011;5458;51.496;7.334;2023-04-24T03:19:05;10.18;;;5.97;;
10811;SDS011;5458;51.496;7.334;2023-04-24T03:21:31;7.07;;;6.38;;
10811;SDS011;5458;51.496;7.334;2023-04-24T03:23:57;7.10;;;6.38;;
10811;SDS011;5458;51.496;7.334;2023-04-24T03:26:23;7.03;;;6.25;;
10811;SDS011;5458;51.496;7.334;2023-04-24T03:28:49;8.55;;;7.65;;
10811;SDS011;5458;51.496;7.334;2023-04-24T03:31:15;9.45;;;7.50;;
10811;SDS011;5458;51.496;7.334;2023-04-24T03:33:41;9.90;;;7.05;;
10811;SDS011;5458;51.496;7.334;2023-04-24T03:36:07;8.02;;;7.13;;
10811;SDS011;5458;51.496;7.334;2023-04-24T03:38:32;10.48;;;7.70;;
10811;SDS011;5458;51.496;7.334;2023-04-24T03:40:58;8.80;;;7.93;;
10811;SDS011;5458;51.496;7.334;2023-04-24T03:43:24;9.55;;;7.70;;
10811;SDS011;5458;51.496;7.334;2023-04-24T03:45:49;8.55;;;6.78;;
10811;SDS011;5458;51.496;7.334;2023-04-24T03:48:15;10.48;;;7.88;;
10811;SDS011;5458;51.496;7.334;2023-04-24T03:50:41;8.35;;;7.50;;
10811;SDS011;5458;51.496;7.334;2023-04-24T03:53:07;9.55;;;7.90;;
10811;SDS011;5458;51.496;7.334;2023-04-24T03:55:33;8.73;;;7.65;;
10811;SDS011;5458;51.496;7.334;2023-04-24T03:57:58;9.40;;;7.75;;
10811;SDS011;5458;51.496;7.334;2023-04-24T04:00:24;9.73;;;8.40;;
10811;SDS011;5458;51.496;7.334;2023-04-24T04:02:51;9.43;;;8.50;;
10811;SDS011;5458;51.496;7.334;2023-04-24T04:05:16;10.13;;;9.13;;
10811;SDS011;5458;51.496;7.334;2023-04-24T04:07:42;12.75;;;8.63;;
10811;SDS011;5458;51.496;7.334;2023-04-24T04:10:07;12.32;;;8.63;;
10811;SDS011;5458;51.496;7.334;2023-04-24T04:12:33;9.30;;;8.18;;
10811;SDS011;5458;51.496;7.334;2023-04-24T04:14:59;12.13;;;8.60;;
10811;SDS011;5458;51.496;7.334;2023-04-24T04:17:25;9.25;;;7.85;;
10811;SDS011;5458;51.496;7.334;2023-04-24T04:19:50;10.32;;;8.35;;
10811;SDS011;5458;51.496;7.334;2023-04-24T04:22:16;10.55;;;8.02;;
10811;SDS011;5458;51.496;7.334;2023-04-24T04:24:42;11.27;;;8.40;;
10811;SDS011;5458;51.496;7.334;2023-04-24T04:27:08;10.07;;;8.65;;
10811;SDS011;5458;51.496;7.334;2023-04-24T04:29:33;9.43;;;8.45;;
10811;SDS011;5458;51.496;7.334;2023-04-24T04:32:00;9.50;;;8.27;;
10811;SDS011;5458;51.496;7.334;2023-04-24T04:34:26;13.80;;;9.35;;
10811;SDS011;5458;51.496;7.334;2023-04-24T04:36:52;9.52;;;8.60;;
10811;SDS011;5458;51.496;7.334;2023-04-24T04:39:17;11.00;;;8.68;;
10811;SDS011;5458;51.496;7.334;2023-04-24T04:41:43;10.35;;;9.13;;
10811;SDS011;5458;51.496;7.334;2023-04-24T04:44:11;11.50;;;9.00;;
10811;SDS011;5458;51.496;7.334;2023-04-24T04:46:37;13.70;;;9.95;;
10811;SDS011;5458;51.496;7.334;2023-04-24T04:49:03;13.27;;;10.20;;
10811;SDS011;5458;51.496;7.334;2023-04-24T04:51:29;10.63;;;9.55;;
10811;SDS011;5458;51.496;7.334;2023-04-24T04:53:56;17.77;;;10.30;;
10811;SDS011;5458;51.496;7.334;2023-04-24T04:56:21;11.55;;;9.35;;
10811;SDS011;5458;51.496;7.334;2023-04-24T04:58:47;12.93;;;10.75;;
10811;SDS011;5458;51.496;7.334;2023-04-24T05:01:12;11.63;;;9.73;;
10811;SDS011;5458;51.496;7.334;2023-04-24T05:03:38;13.82;;;8.68;;
10811;SDS011;5458;51.496;7.334;2023-04-24T05:06:05;12.55;;;9.57;;
10811;SDS011;5458;51.496;7.334;2023-04-24T05:08:31;11.73;;;9.63;;
10811;SDS011;5458;51.496;7.334;2023-04-24T05:10:56;13.20;;;9.55;;
10811;SDS011;5458;51.496;7.334;2023-04-24T05:13:22;11.98;;;9.73;;
10811;SDS011;5458;51.496;7.334;2023-04-24T05:15:48;10.00;;;8.93;;
10811;SDS011;5458;51.496;7.334;2023-04-24T05:18:13;14.63;;;10.20;;
10811;SDS011;5458;51.496;7.334;2023-04-24T05:20:40;14.63;;;9.68;;
10811;SDS011;5458;51.496;7.334;2023-04-24T05:23:08;10.43;;;8.18;;
10811;SDS011;5458;51.496;7.334;2023-04-24T05:25:33;10.32;;;9.27;;
10811;SDS011;5458;51.496;7.334;2023-04-24T05:28:00;14.55;;;9.43;;
10811;SDS011;5458;51.496;7.334;2023-04-24T05:30:26;10.55;;;8.02;;
10811;SDS011;5458;51.496;7.334;2023-04-24T05:32:52;8.55;;;7.47;;
10811;SDS011;5458;51.496;7.334;2023-04-24T05:35:17;9.55;;;7.63;;
10811;SDS011;5458;51.496;7.334;2023-04-24T05:37:43;11.90;;;8.05;;
10811;SDS011;5458;51.496;7.334;2023-04-24T05:40:09;9.07;;;7.95;;
10811;SDS011;5458;51.496;7.334;2023-04-24T05:42:36;12.13;;;7.95;;
10811;SDS011;5458;51.496;7.334;2023-04-24T05:45:02;9.10;;;7.80;;
10811;SDS011;5458;51.496;7.334;2023-04-24T05:47:28;8.63;;;7.40;;
10811;SDS011;5458;51.496;7.334;2023-04-24T05:49:54;8.73;;;7.85;;
10811;SDS011;5458;51.496;7.334;2023-04-24T05:52:19;9.73;;;7.78;;
10811;SDS011;5458;51.496;7.334;2023-04-24T05:54:45;9.80;;;8.05;;
10811;SDS011;5458;51.496;7.334;2023-04-24T05:57:11;9.43;;;8.52;;
10811;SDS011;5458;51.496;7.334;2023-04-24T05:59:37;8.50;;;7.68;;
10811;SDS011;5458;51.496;7.334;2023-04-24T06:02:06;10.75;;;8.93;;
10811;SDS011;5458;51.496;7.334;2023-04-24T06:04:32;9.82;;;8.82;;
10811;SDS011;5458;51.496;7.334;2023-04-24T06:06:58;11.15;;;8.45;;
10811;SDS011;5458;51.496;7.334;2023-04-24T06:09:25;12.68;;;8.80;;
10811;SDS011;5458;51.496;7.334;2023-04-24T06:11:50;9.63;;;8.55;;
10811;SDS011;5458;51.496;7.334;2023-04-24T06:14:20;10.25;;;8.63;;
10811;SDS011;5458;51.496;7.334;2023-04-24T06:16:46;10.02;;;8.25;;
10811;SDS011;5458;51.496;7.334;2023-04-24T06:19:11;10.63;;;8.85;;
10811;SDS011;5458;51.496;7.334;2023-04-24T06:21:37;10.38;;;8.82;;
10811;SDS011;5458;51.496;7.334;2023-04-24T06:24:03;12.20;;;8.48;;
10811;SDS011;5458;51.496;7.334;2023-04-24T06:26:29;8.23;;;7.38;;
10811;SDS011;5458;51.496;7.334;2023-04-24T06:28:55;9.13;;;8.13;;
10811;SDS011;5458;51.496;7.334;2023-04-24T06:31:21;7.88;;;7.05;;
10811;SDS011;5458;51.496;7.334;2023-04-24T06:33:48;8.88;;;7.43;;
10811;SDS011;5458;51.496;7.334;2023-04-24T06:36:14;7.93;;;6.70;;
10811;SDS011;5458;51.496;7.334;2023-04-24T06:38:40;9.43;;;6.22;;
10811;SDS011;5458;51.496;7.334;2023-04-24T06:41:06;7.35;;;6.50;;
10811;SDS011;5458;51.496;7.334;2023-04-24T06:43:32;6.65;;;5.97;;
10811;SDS011;5458;51.496;7.334;2023-04-24T06:45:59;6.70;;;6.10;;
10811;SDS011;5458;51.496;7.334;2023-04-24T06:48:25;8.23;;;6.13;;
10811;SDS011;5458;51.496;7.334;2023-04-24T06:50:51;6.35;;;5.40;;
10811;SDS011;5458;51.496;7.334;2023-04-24T06:53:17;7.15;;;6.13;;
10811;SDS011;5458;51.496;7.334;2023-04-24T06:55:43;8.02;;;5.78;;
10811;SDS011;5458;51.496;7.334;2023-04-24T06:58:11;5.75;;;5.25;;
10811;SDS011;5458;51.496;7.334;2023-04-24T07:00:36;6.18;;;5.57;;
10811;SDS011;5458;51.496;7.334;2023-04-24T07:03:03;6.28;;;5.53;;
10811;SDS011;5458;51.496;7.334;2023-04-24T07:08:05;5.53;;;5.05;;
10811;SDS011;5458;51.496;7.334;2023-04-24T07:10:31;6.10;;;5.20;;
10811;SDS011;5458;51.496;7.334;2023-04-24T07:12:59;5.53;;;4.80;;
10811;SDS011;5458;51.496;7.334;2023-04-24T07:15:24;5.32;;;4.90;;
10811;SDS011;5458;51.496;7.334;2023-04-24T07:17:50;6.25;;;5.63;;
10811;SDS011;5458;51.496;7.334;2023-04-24T07:20:15;5.22;;;4.65;;
10811;SDS011;5458;51.496;7.334;2023-04-24T07:22:41;5.97;;;5.20;;
10811;SDS011;5458;51.496;7.334;2023-04-24T07:25:07;5.13;;;4.70;;
10811;SDS011;5458;51.496;7.334;2023-04-24T07:27:33;5.45;;;4.95;;
10811;SDS011;5458;51.496;7.334;2023-04-24T07:30:00;6.13;;;5.53;;
10811;SDS011;5458;51.496;7.334;2023-04-24T07:32:27;5.07;;;4.60;;
10811;SDS011;5458;51.496;7.334;2023-04-24T07:34:52;5.43;;;4.32;;
10811;SDS011;5458;51.496;7.334;2023-04-24T07:37:18;4.40;;;4.00;;
10811;SDS011;5458;51.496;7.334;2023-04-24T07:39:44;4.18;;;3.88;;
10811;SDS011;5458;51.496;7.334;2023-04-24T07:42:09;4.00;;;3.70;;
10811;SDS011;5458;51.496;7.334;2023-04-24T07:44:35;3.63;;;3.33;;
10811;SDS011;5458;51.496;7.334;2023-04-24T07:47:01;3.58;;;3.25;;
10811;SDS011;5458;51.496;7.334;2023-04-24T07:49:26;3.50;;;3.25;;
10811;SDS011;5458;51.496;7.334;2023-04-24T07:51:52;3.67;;;3.35;;
10811;SDS011;5458;51.496;7.334;2023-04-24T07:54:18;3.83;;;3.53;;
10811;SDS011;5458;51.496;7.334;2023-04-24T07:56:44;4.07;;;3.72;;
10811;SDS011;5458;51.496;7.334;2023-04-24T07:59:10;4.43;;;4.03;;
10811;SDS011;5458;51.496;7.334;2023-04-24T08:01:36;4.40;;;3.33;;
10811;SDS011;5458;51.496;7.334;2023-04-24T08:04:02;3.33;;;2.88;;
10811;SDS011;5458;51.496;7.334;2023-04-24T08:06:27;2.17;;;2.00;;
10811;SDS011;5458;51.496;7.334;2023-04-24T08:08:55;1.83;;;1.73;;
10811;SDS011;5458;51.496;7.334;2023-04-24T08:11:21;1.70;;;1.60;;
10811;SDS011;5458;51.496;7.334;2023-04-24T08:13:47;1.70;;;1.60;;
10811;SDS011;5458;51.496;7.334;2023-04-24T08:16:12;2.88;;;1.30;;
10811;SDS011;5458;51.496;7.334;2023-04-24T08:18:38;1.10;;;1.00;;
10811;SDS011;5458;51.496;7.334;2023-04-24T08:21:04;1.00;;;1.00;;
10811;SDS011;5458;51.496;7.334;2023-04-24T08:23:29;0.80;;;0.80;;
10811;SDS011;5458;51.496;7.334;2023-04-24T08:25:55;0.93;;;0.63;;
10811;SDS011;5458;51.496;7.334;2023-04-24T08:28:21;0.60;;;0.60;;
10811;SDS011;5458;51.496;7.334;2023-04-24T08:30:47;0.70;;;0.70;;
10811;SDS011;5458;51.496;7.334;2023-04-24T08:33:13;0.80;;;0.80;;
10811;SDS011;5458;51.496;7.334;2023-04-24T08:35:39;0.88;;;0.88;;
10811;SDS011;5458;51.496;7.334;2023-04-24T08:38:05;1.02;;;0.90;;
10811;SDS011;5458;51.496;7.334;2023-04-24T08:40:31;1.00;;;0.90;;
10811;SDS011;5458;51.496;7.334;2023-04-24T08:42:59;1.08;;;0.90;;
10811;SDS011;5458;51.496;7.334;2023-04-24T08:45:25;1.05;;;1.00;;
10811;SDS011;5458;51.496;7.334;2023-04-24T08:47:52;0.90;;;0.90;;
10811;SDS011;5458;51.496;7.334;2023-04-24T08:50:20;1.25;;;0.60;;
10811;SDS011;5458;51.496;7.334;2023-04-24T08:52:47;0.70;;;0.70;;
10811;SDS011;5458;51.496;7.334;2023-04-24T08:55:15;1.58;;;0.82;;
10811;SDS011;5458;51.496;7.334;2023-04-24T08:57:43;0.80;;;0.80;;
10811;SDS011;5458;51.496;7.334;2023-04-24T09:00:10;1.00;;;1.00;;
10811;SDS011;5458;51.496;7.334;2023-04-24T09:02:36;0.98;;;0.93;;
10811;SDS011;5458;51.496;7.334;2023-04-24T09:05:06;1.05;;;0.95;;
10811;SDS011;5458;51.496;7.334;2023-04-24T09:07:34;1.30;;;1.02;;
10811;SDS011;5458;51.496;7.334;2023-04-24T09:10:01;2.20;;;1.40;;
10811;SDS011;5458;51.496;7.334;2023-04-24T09:12:27;1.20;;;1.10;;
10811;SDS011;5458;51.496;7.334;2023-04-24T09:14:53;1.85;;;1.45;;
10811;SDS011;5458;51.496;7.334;2023-04-24T09:17:20;2.33;;;1.40;;
10811;SDS011;5458;51.496;7.334;2023-04-24T09:19:47;1.20;;;1.20;;
10811;SDS011;5458;51.496;7.334;2023-04-24T09:22:14;1.80;;;1.50;;
10811;SDS011;5458;51.496;7.334;2023-04-24T09:24:40;1.50;;;1.40;;
10811;SDS011;5458;51.496;7.334;2023-04-24T09:27:06;1.83;;;1.73;;
10811;SDS011;5458;51.496;7.334;2023-04-24T09:29:32;2.13;;;1.95;;
10811;SDS011;5458;51.496;7.334;2023-04-24T09:31:58;2.40;;;2.30;;
10811;SDS011;5458;51.496;7.334;2023-04-24T09:34:25;2.75;;;2.55;;
10811;SDS011;5458;51.496;7.334;2023-04-24T09:36:52;1.90;;;1.80;;
10811;SDS011;5458;51.496;7.334;2023-04-24T09:39:18;2.30;;;2.20;;
10811;SDS011;5458;51.496;7.334;2023-04-24T09:41:51;2.65;;;2.55;;
10811;SDS011;5458;51.496;7.334;2023-04-24T09:44:27;2.85;;;2.65;;
10811;SDS011;5458;51.496;7.334;2023-04-24T09:46:54;2.40;;;2.13;;
10811;SDS011;5458;51.496;7.334;2023-04-24T09:49:24;2.15;;;2.05;;
10811;SDS011;5458;51.496;7.334;2023-04-24T09:54:29;2.55;;;2.35;;
10811;SDS011;5458;51.496;7.334;2023-04-24T09:56:55;4.80;;;2.47;;
10811;SDS011;5458;51.496;7.334;2023-04-24T09:59:21;2.30;;;2.10;;
10811;SDS011;5458;51.496;7.334;2023-04-24T10:01:47;2.47;;;1.75;;
10811;SDS011;5458;51.496;7.334;2023-04-24T10:04:17;2.47;;;2.10;;
10811;SDS011;5458;51.496;7.334;2023-04-24T10:06:49;2.70;;;2.50;;
10811;SDS011;5458;51.496;7.334;2023-04-24T10:09:16;5.13;;;2.70;;
10811;SDS011;5458;51.496;7.334;2023-04-24T10:11:48;2.58;;;2.40;;
10811;SDS011;5458;51.496;7.334;2023-04-24T10:14:19;2.78;;;2.58;;
10811;SDS011;5458;51.496;7.334;2023-04-24T10:16:46;3.58;;;2.95;;
10811;SDS011;5458;51.496;7.334;2023-04-24T10:19:16;4.53;;;4.10;;
10811;SDS011;5458;51.496;7.334;2023-04-24T10:21:45;3.75;;;2.80;;
10811;SDS011;5458;51.496;7.334;2023-04-24T10:24:14;3.78;;;3.40;;
10811;SDS011;5458;51.496;7.334;2023-04-24T10:26:41;3.40;;;2.67;;
10811;SDS011;5458;51.496;7.334;2023-04-24T10:29:07;3.50;;;3.20;;
10811;SDS011;5458;51.496;7.334;2023-04-24T10:31:36;4.00;;;2.85;;
10811;SDS011;5458;51.496;7.334;2023-04-24T10:34:03;3.35;;;2.33;;
10811;SDS011;5458;51.496;7.334;2023-04-24T10:36:30;4.45;;;3.13;;
10811;SDS011;5458;51.496;7.334;2023-04-24T10:38:58;3.42;;;3.05;;
10811;SDS011;5458;51.496;7.334;2023-04-24T10:41:26;5.70;;;3.20;;
10811;SDS011;5458;51.496;7.334;2023-04-24T10:44:08;3.90;;;3.55;;
10811;SDS011;5458;51.496;7.334;2023-04-24T10:46:39;5.63;;;4.03;;
10811;SDS011;5458;51.496;7.334;2023-04-24T10:49:08;3.65;;;3.33;;
10811;SDS011;5458;51.496;7.334;2023-04-24T10:59:47;5.35;;;4.38;;
10811;SDS011;5458;51.496;7.334;2023-04-24T11:02:36;5.03;;;4.55;;
10811;SDS011;5458;51.496;7.334;2023-04-24T11:05:03;5.45;;;5.00;;
10811;SDS011;5458;51.496;7.334;2023-04-24T11:07:29;7.25;;;5.00;;
10811;SDS011;5458;51.496;7.334;2023-04-24T11:09:58;6.88;;;5.03;;
10811;SDS011;5458;51.496;7.334;2023-04-24T11:12:26;6.03;;;5.07;;
10811;SDS011;5458;51.496;7.334;2023-04-24T11:17:35;8.93;;;5.78;;
10811;SDS011;5458;51.496;7.334;2023-04-24T11:22:36;11.10;;;6.65;;
10811;SDS011;5458;51.496;7.334;2023-04-24T11:25:04;7.25;;;5.03;;
10811;SDS011;5458;51.496;7.334;2023-04-24T11:27:32;10.18;;;5.95;;
10811;SDS011;5458;51.496;7.334;2023-04-24T11:30:07;9.80;;;6.82;;
10811;SDS011;5458;51.496;7.334;2023-04-24T11:35:10;11.95;;;6.75;;
10811;SDS011;5458;51.496;7.334;2023-04-24T11:37:42;11.15;;;8.15;;
10811;SDS011;5458;51.496;7.334;2023-04-24T11:40:11;10.85;;;6.68;;
10811;SDS011;5458;51.496;7.334;2023-04-24T11:42:45;11.07;;;7.30;;
10811;SDS011;5458;51.496;7.334;2023-04-24T11:45:13;15.18;;;6.63;;
10811;SDS011;5458;51.496;7.334;2023-04-24T11:47:43;9.35;;;6.70;;
10811;SDS011;5458;51.496;7.334;2023-04-24T11:50:14;12.05;;;7.07;;
10811;SDS011;5458;51.496;7.334;2023-04-24T11:52:42;13.57;;;6.78;;
10811;SDS011;5458;51.496;7.334;2023-04-24T11:57:44;12.10;;;7.90;;
10811;SDS011;5458;51.496;7.334;2023-04-24T12:00:15;11.38;;;7.47;;
10811;SDS011;5458;51.496;7.334;2023-04-24T12:02:43;12.73;;;7.63;;
10811;SDS011;5458;51.496;7.334;2023-04-24T12:05:18;12.93;;;7.30;;
10811;SDS011;5458;51.496;7.334;2023-04-24T12:07:45;6.97;;;6.28;;
10811;SDS011;5458;51.496;7.334;2023-04-24T12:10:10;9.90;;;7.75;;
10811;SDS011;5458;51.496;7.334;2023-04-24T12:12:36;15.30;;;6.88;;
10811;SDS011;5458;51.496;7.334;2023-04-24T12:15:06;6.97;;;5.25;;
10811;SDS011;5458;51.496;7.334;2023-04-24T12:17:33;8.60;;;5.80;;
10811;SDS011;5458;51.496;7.334;2023-04-24T12:20:01;7.60;;;5.55;;
10811;SDS011;5458;51.496;7.334;2023-04-24T12:22:42;10.15;;;5.40;;
10811;SDS011;5458;51.496;7.334;2023-04-24T12:25:09;10.43;;;5.95;;
10811;SDS011;5458;51.496;7.334;2023-04-24T12:27:35;8.32;;;5.30;;
10811;SDS011;5458;51.496;7.334;2023-04-24T12:30:02;9.10;;;5.30;;
10811;SDS011;5458;51.496;7.334;2023-04-24T12:32:29;7.78;;;4.88;;
10811;SDS011;5458;51.496;7.334;2023-04-24T12:34:55;10.38;;;5.07;;
10811;SDS011;5458;51.496;7.334;2023-04-24T12:37:25;8.70;;;4.63;;
10811;SDS011;5458;51.496;7.334;2023-04-24T12:39:58;7.78;;;5.10;;
10811;SDS011;5458;51.496;7.334;2023-04-24T12:42:29;9.70;;;4.80;;
10811;SDS011;5458;51.496;7.334;2023-04-24T12:45:05;9.52;;;4.30;;
10811;SDS011;5458;51.496;7.334;2023-04-24T12:47:32;6.53;;;3.63;;
10811;SDS011;5458;51.496;7.334;2023-04-24T12:49:58;8.70;;;4.60;;
10811;SDS011;5458;51.496;7.334;2023-04-24T12:52:27;8.30;;;4.55;;
10811;SDS011;5458;51.496;7.334;2023-04-24T12:54:55;7.90;;;4.03;;
10811;SDS011;5458;51.496;7.334;2023-04-24T12:57:23;6.43;;;4.43;;
10811;SDS011;5458;51.496;7.334;2023-04-24T12:59:49;5.68;;;4.50;;
10811;SDS011;5458;51.496;7.334;2023-04-24T13:02:15;8.60;;;5.28;;
10811;SDS011;5458;51.496;7.334;2023-04-24T13:04:52;10.20;;;5.20;;
10811;SDS011;5458;51.496;7.334;2023-04-24T13:07:18;6.55;;;4.45;;
10811;SDS011;5458;51.496;7.334;2023-04-24T13:09:44;6.00;;;4.78;;
10811;SDS011;5458;51.496;7.334;2023-04-24T13:12:11;7.43;;;4.28;;
10811;SDS011;5458;51.496;7.334;2023-04-24T13:14:37;4.78;;;4.30;;
10811;SDS011;5458;51.496;7.334;2023-04-24T13:17:03;6.32;;;4.00;;
10811;SDS011;5458;51.496;7.334;2023-04-24T13:19:29;5.30;;;3.90;;
10811;SDS011;5458;51.496;7.334;2023-04-24T13:22:01;5.47;;;4.05;;
10811;SDS011;5458;51.496;7.334;2023-04-24T13:24:27;4.82;;;4.13;;
10811;SDS011;5458;51.496;7.334;2023-04-24T13:26:53;5.25;;;3.58;;
10811;SDS011;5458;51.496;7.334;2023-04-24T13:29:19;5.13;;;3.75;;
10811;SDS011;5458;51.496;7.334;2023-04-24T13:31:49;4.78;;;3.40;;
10811;SDS011;5458;51.496;7.334;2023-04-24T13:34:16;5.40;;;3.47;;
10811;SDS011;5458;51.496;7.334;2023-04-24T13:36:42;3.60;;;3.30;;
10811;SDS011;5458;51.496;7.334;2023-04-24T13:39:08;3.78;;;3.42;;
10811;SDS011;5458;51.496;7.334;2023-04-24T13:41:33;3.53;;;3.15;;
10811;SDS011;5458;51.496;7.334;2023-04-24T13:44:01;5.18;;;3.30;;
10811;SDS011;5458;51.496;7.334;2023-04-24T13:46:27;4.90;;;3.10;;
10811;SDS011;5458;51.496;7.334;2023-04-24T13:48:53;4.15;;;3.03;;
10811;SDS011;5458;51.496;7.334;2023-04-24T13:51:18;5.10;;;3.15;;
10811;SDS011;5458;51.496;7.334;2023-04-24T13:53:44;3.60;;;2.40;;
10811;SDS011;5458;51.496;7.334;2023-04-24T13:56:09;4.53;;;2.80;;
10811;SDS011;5458;51.496;7.334;2023-04-24T13:58:37;2.45;;;2.10;;
10811;SDS011;5458;51.496;7.334;2023-04-24T14:01:03;2.28;;;2.08;;
10811;SDS011;5458;51.496;7.334;2023-04-24T14:03:28;3.00;;;1.52;;
10811;SDS011;5458;51.496;7.334;2023-04-24T14:05:54;5.00;;;1.90;;
10811;SDS011;5458;51.496;7.334;2023-04-24T14:08:20;5.63;;;2.17;;
10811;SDS011;5458;51.496;7.334;2023-04-24T14:10:46;5.78;;;2.20;;
10811;SDS011;5458;51.496;7.334;2023-04-24T14:13:11;3.88;;;2.60;;
10811;SDS011;5458;51.496;7.334;2023-04-24T14:15:37;4.53;;;2.28;;
10811;SDS011;5458;51.496;7.334;2023-04-24T14:18:03;3.47;;;1.90;;
10811;SDS011;5458;51.496;7.334;2023-04-24T14:20:29;4.38;;;2.50;;
10811;SDS011;5458;51.496;7.334;2023-04-24T14:22:55;2.83;;;2.42;;
10811;SDS011;5458;51.496;7.334;2023-04-24T14:25:23;2.65;;;2.45;;
10811;SDS011;5458;51.496;7.334;2023-04-24T14:27:50;2.97;;;2.33;;
10811;SDS011;5458;51.496;7.334;2023-04-24T14:30:15;3.80;;;1.88;;
10811;SDS011;5458;51.496;7.334;2023-04-24T14:32:41;2.95;;;1.95;;
10811;SDS011;5458;51.496;7.334;2023-04-24T14:35:07;2.15;;;1.88;;
10811;SDS011;5458;51.496;7.334;2023-04-24T14:37:33;4.05;;;1.33;;
10811;SDS011;5458;51.496;7.334;2023-04-24T14:39:59;3.03;;;1.70;;
10811;SDS011;5458;51.496;7.334;2023-04-24T14:42:24;2.50;;;1.90;;
10811;SDS011;5458;51.496;7.334;2023-04-24T14:44:50;3.38;;;1.95;;
10811;SDS011;5458;51.496;7.334;2023-04-24T14:47:16;2.67;;;1.80;;
10811;SDS011;5458;51.496;7.334;2023-04-24T14:49:46;2.97;;;1.92;;
10811;SDS011;5458;51.496;7.334;2023-04-24T14:52:15;4.72;;;2.10;;
10811;SDS011;5458;51.496;7.334;2023-04-24T14:54:41;2.28;;;2.05;;
10811;SDS011;5458;51.496;7.334;2023-04-24T14:57:07;2.97;;;2.30;;
10811;SDS011;5458;51.496;7.334;2023-04-24T14:59:33;2.58;;;2.10;;
10811;SDS011;5458;51.496;7.334;2023-04-24T15:01:58;3.72;;;2.72;;
10811;SDS011;5458;51.496;7.334;2023-04-24T15:04:24;3.35;;;2.63;;
10811;SDS011;5458;51.496;7.334;2023-04-24T15:06:50;5.10;;;2.75;;
10811;SDS011;5458;51.496;7.334;2023-04-24T15:09:16;5.20;;;2.50;;
10811;SDS011;5458;51.496;7.334;2023-04-24T15:11:42;3.80;;;2.75;;
10811;SDS011;5458;51.496;7.334;2023-04-24T15:14:08;5.00;;;3.33;;
10811;SDS011;5458;51.496;7.334;2023-04-24T15:16:33;3.28;;;2.78;;
10811;SDS011;5458;51.496;7.334;2023-04-24T15:19:00;5.75;;;3.72;;